Latest Coastal Weather Observations for Neptune Island

IDS60701

Issued at 11:02 pm CDT Sunday 29 March 2015 (issued every 10 minutes, with the page automatically refreshed every 10 minutes)

About coastal observations | Map of coastal stations | Coastal observations for SA | Marine services | Other Formats
Station Details ID: 018115 Name: NEPTUNE ISLAND Lat: -35.34 Lon: 136.12 Height: 32.0 m
Data from the previous 72 hours. | See also: Recent months at Neptune Island
Date/Time
CDT
Temp

°C
Wind Pressure Rain
since 9am
mm
Weather Cloud Vis
km
Sea
Height
m
Swell
Dir
 
Speed
knots
Gust
knots
hPa Trend Height
m
Period
s
Dir
29/11:00pm 18.0 S 8 9 1023.6 - 0.0 - - - - - - -
29/10:30pm 18.1 S 9 10 1023.6 - 0.0 - - - - - - -
29/10:00pm 18.2 S 8 9 1023.7 - 0.0 - - - - - - -
29/09:30pm 18.3 SSW 11 12 1023.4 - 0.0 - - - - - - -
29/09:00pm 18.4 SSW 7 9 1023.2 - 0.0 - - - - - - -
29/08:30pm 18.5 SSW 7 8 1022.8 - 0.0 - - - - - - -
29/08:00pm 18.6 SSW 7 9 1022.4 - 0.0 - - - - - - -
29/07:30pm 19.0 SW 7 8 1022.2 - 0.0 - - - - - - -
29/07:00pm 19.3 SW 7 9 1022.0 - 0.0 - - - - - - -
29/06:30pm 19.8 SW 7 8 1021.9 - 0.0 - - - - - - -
29/06:00pm 20.1 SW 7 8 1021.8 - 0.0 - - - - - - -
29/05:30pm 20.5 SW 8 9 1021.6 - 0.0 - - - - - - -
29/05:00pm 20.5 SW 8 9 1021.6 - 0.0 - - - - - - -
29/04:30pm 20.8 SW 8 9 1021.5 - 0.0 - - - - - - -
29/04:00pm 20.6 WSW 8 9 1021.6 - 0.0 - - - - - - -
29/03:30pm 21.5 WSW 8 9 1021.7 - 0.0 - - - - - - -
29/03:00pm 20.7 WSW 9 10 1021.7 - 0.0 - - - - - - -
29/02:30pm 20.7 WSW 8 9 1021.9 - 0.0 - - - - - - -
29/02:00pm 20.3 WSW 7 8 1022.1 - 0.0 - - - - - - -
29/01:30pm 20.6 W 8 9 1022.4 - 0.0 - - - - - - -
29/01:00pm 20.2 WSW 7 8 1022.5 - 0.0 - - - - - - -
29/12:30pm 20.5 WNW 8 9 1022.5 - 0.0 - - - - - - -
29/12:00pm 20.4 W 9 10 1022.7 - 0.0 - - - - - - -
29/11:30am 20.2 WNW 8 10 1022.8 - 0.0 - - - - - - -
29/11:00am 19.6 WNW 9 10 1022.7 - 0.0 - - - - - - -
29/10:30am 18.7 NW 10 11 1022.5 - 0.0 - - - - - - -
29/10:00am 18.5 NW 9 10 1022.4 - 0.0 - - - - - - -
29/09:30am 17.9 NW 10 11 1022.2 - 0.0 - - - - - - -
29/09:00am 17.9 WNW 7 9 1022.0 - 0.0 - - - - - - -
29/08:30am 17.6 WNW 8 10 1021.6 - 0.0 - - - - - - -
29/08:00am 17.1 W 9 11 1021.3 - 0.0 - - - - - - -
29/07:30am 16.7 WNW 12 14 1021.1 - 0.0 - - - - - - -
29/07:00am 16.7 WNW 18 20 1020.9 - 0.0 - - - - - - -
29/06:30am 17.5 W 15 19 1020.5 - 0.0 - - - - - - -
29/06:00am 18.0 NW 9 11 1020.4 - 0.0 - - - - - - -
29/05:30am 17.6 NNW 5 6 1020.1 - 0.0 - - - - - - -
29/05:00am 17.8 WNW 6 7 1020.0 - 0.0 - - - - - - -
29/04:30am 17.7 WNW 6 7 1020.0 - 0.0 - - - - - - -
29/04:00am 17.5 WNW 7 8 1020.0 - 0.0 - - - - - - -
29/03:30am 17.4 NNW 7 8 1020.0 - 0.0 - - - - - - -
29/03:00am 17.2 NNW 5 6 1020.0 - 0.0 - - - - - - -
29/02:30am 17.2 NW 7 8 1020.3 - 0.0 - - - - - - -
29/02:00am 17.1 NNW 8 9 1020.3 - 0.0 - - - - - - -
29/01:30am 17.4 NW 7 8 1020.5 - 0.0 - - - - - - -
29/01:00am 17.4 NW 9 10 1020.6 - 0.0 - - - - - - -
29/12:30am 17.5 NW 9 11 1020.8 - 0.0 - - - - - - -
29/12:00am 17.5 NW 12 14 1021.2 - 0.0 - - - - - - -
 
Date/Time
CDT
Temp

°C
Wind Pressure Rain
since 9am
mm
Weather Cloud Vis
km
Sea
Height
m
Swell
Dir
 
Speed
knots
Gust
knots
hPa Trend Height
m
Period
s
Dir
28/11:30pm 17.6 N 10 12 1021.2 - 0.0 - - - - - - -
28/11:00pm 17.4 N 9 11 1021.0 - 0.0 - - - - - - -
28/10:30pm 17.5 N 11 12 1021.2 - 0.0 - - - - - - -
28/10:00pm 17.5 N 11 13 1021.2 - 0.0 - - - - - - -
28/09:30pm 17.5 N 11 11 1021.2 - 0.0 - - - - - - -
28/09:00pm 17.4 NNE 10 11 1021.0 - 0.0 - - - - - - -
28/08:30pm 17.4 NNE 10 11 1020.8 - 0.0 - - - - - - -
28/08:00pm 17.5 NNE 9 11 1020.7 - 0.0 - - - - - - -
28/07:30pm 17.7 NNE 9 10 1020.6 - 0.0 - - - - - - -
28/07:00pm 17.9 NNE 6 8 1020.4 - 0.0 - - - - - - -
28/06:30pm 18.1 NNE 7 9 1020.1 - 0.0 - - - - - - -
28/06:00pm 18.2 NNE 7 9 1020.3 - 0.0 - - - - - - -
28/05:30pm 18.6 NNE 7 8 1020.3 - 0.0 - - - - - - -
28/05:00pm 18.6 NNE 7 8 1020.5 - 0.0 - - - - - - -
28/04:30pm 19.1 NE 7 10 1020.4 - 0.0 - - - - - - -
28/04:00pm 19.8 NE 7 9 1020.5 - 0.0 - - - - - - -
28/03:30pm 20.0 NNE 8 9 1021.0 - 0.0 - - - - - - -
28/03:00pm 19.8 NNE 9 11 1021.3 - 0.0 - - - - - - -
28/02:30pm 19.8 NNE 9 10 1021.6 - 0.0 - - - - - - -
28/02:00pm 19.9 N 10 12 1022.1 - 0.0 - - - - - - -
28/01:30pm 19.5 N 11 13 1022.6 - 0.0 - - - - - - -
28/01:00pm 19.5 N 14 16 1022.9 - 0.0 - - - - - - -
28/12:30pm 19.5 N 14 17 1023.0 - 0.0 - - - - - - -
28/12:00pm 19.4 N 14 16 1023.2 - 0.0 - - - - - - -
28/11:30am 18.4 NNE 16 20 1023.4 - 0.0 - - - - - - -
28/11:00am 17.4 NNE 11 17 1023.7 - 0.0 - - - - - - -
28/10:30am 17.5 NE 15 19 1024.0 - 0.0 - - - - - - -
28/10:00am 17.4 NE 10 14 1024.0 - 0.0 - - - - - - -
28/09:30am 16.7 NE 12 18 1024.2 - 0.0 - - - - - - -
28/09:00am 16.2 NE 13 16 1024.1 - 0.0 - - - - - - -
28/08:30am 15.8 NE 13 16 1024.0 - 0.0 - - - - - - -
28/08:00am 15.6 NE 13 17 1023.8 - 0.0 - - - - - - -
28/07:30am 15.4 NE 12 16 1023.6 - 0.0 - - - - - - -
28/07:00am 15.1 NE 13 16 1023.5 - 0.0 - - - - - - -
28/06:30am 15.2 ENE 12 14 1023.6 - 0.0 - - - - - - -
28/06:00am 14.8 ENE 12 14 1023.5 - 0.0 - - - - - - -
28/05:30am 14.7 E 11 14 1023.9 - 0.0 - - - - - - -
28/05:00am 14.7 NE 11 14 1024.1 - 0.0 - - - - - - -
28/04:30am 14.4 ENE 10 12 1024.4 - 0.0 - - - - - - -
28/04:00am 14.6 ENE 10 12 1024.6 - 0.0 - - - - - - -
28/03:30am 14.7 ENE 8 10 1025.0 - 0.0 - - - - - - -
28/03:00am 14.6 ENE 10 13 1025.2 - 0.0 - - - - - - -
28/02:30am 14.5 ENE 10 12 1025.2 - 0.0 - - - - - - -
28/02:00am 14.8 E 11 14 1025.5 - 0.0 - - - - - - -
28/01:30am 14.3 E 9 11 1025.7 - 0.0 - - - - - - -
28/01:00am 14.8 E 9 13 1026.1 - 0.0 - - - - - - -
28/12:30am 15.0 ESE 7 10 1026.4 - 0.0 - - - - - - -
28/12:00am 14.9 ESE 8 12 1026.5 - 0.0 - - - - - - -
 
Date/Time
CDT
Temp

°C
Wind Pressure Rain
since 9am
mm
Weather Cloud Vis
km
Sea
Height
m
Swell
Dir
 
Speed
knots
Gust
knots
hPa Trend Height
m
Period
s
Dir
27/11:30pm 15.5 ESE 8 9 1026.6 - 0.0 - - - - - - -
27/11:00pm 15.3 E 10 13 1026.6 - 0.0 - - - - - - -
27/10:30pm 15.2 SE 9 11 1026.8 - 0.0 - - - - - - -
27/10:00pm 15.5 SE 9 11 1027.0 - 0.0 - - - - - - -
27/09:30pm 15.3 SSE 8 11 1027.2 - 0.0 - - - - - - -
27/09:00pm 15.3 SSE 9 11 1027.1 - 0.0 - - - - - - -
27/08:30pm 15.6 SSE 9 11 1026.9 - 0.0 - - - - - - -
27/08:00pm 15.5 S 9 13 1026.6 - 0.0 - - - - - - -
27/07:30pm 15.5 S 11 13 1026.4 - 0.0 - - - - - - -
27/07:00pm 15.7 S 11 13 1026.5 - 0.0 - - - - - - -
27/06:30pm 16.0 S 9 11 1026.5 - 0.0 - - - - - - -
27/06:00pm 16.3 S 9 11 1026.6 - 0.0 - - - - - - -
27/05:30pm 15.4 S 10 11 1026.6 - 0.0 - - - - - - -
27/05:00pm 17.0 SSW 10 14 1026.8 - 0.0 - - - - - - -
27/04:30pm 17.1 S 11 13 1026.8 - 0.0 - - - - - - -
27/04:00pm 17.0 SSW 8 11 1026.9 - 0.0 - - - - - - -
27/03:30pm 17.5 SSW 7 10 1027.2 - 0.0 - - - - - - -
27/03:00pm 17.9 S 7 10 1027.3 - 0.0 - - - - - - -
27/02:30pm 16.8 SSW 6 7 1027.7 - 0.0 - - - - - - -
27/02:00pm 16.0 WSW 2 4 1028.1 - 0.0 - - - - - - -
27/01:30pm 17.4 ENE 5 7 1028.5 - 0.0 - - - - - - -
27/01:00pm 16.0 SW 4 6 1028.8 - 0.0 - - - - - - -
27/12:30pm 16.1 SSW 7 13 1029.2 - 0.0 - - - - - - -
27/12:00pm 16.7 SSW 6 7 1029.4 - 0.0 - - - - - - -
27/11:30am 16.1 SE 5 7 1029.6 - 0.0 - - - - - - -
27/11:00am 15.6 SSE 6 8 1029.8 - 0.0 - - - - - - -
27/10:30am 14.6 SSE 12 15 1030.0 - 0.0 - - - - - - -
27/10:00am 15.2 SSE 11 15 1029.7 - 0.0 - - - - - - -
27/09:30am 14.8 SSW 13 16 1029.6 - 0.0 - - - - - - -
27/09:00am 15.1 S 15 19 1029.3 - 0.0 - - - - - - -
27/08:30am 15.1 S 11 13 1029.3 - 0.0 - - - - - - -
27/08:00am 14.7 SSW 11 14 1028.9 - 0.0 - - - - - - -
27/07:30am 14.2 SW 7 9 1028.8 - 0.0 - - - - - - -
27/07:00am 14.1 SSW 17 20 1028.5 - 0.0 - - - - - - -
27/06:30am 14.2 SSW 16 19 1028.4 - 0.0 - - - - - - -
27/06:00am 14.5 SW 15 17 1028.1 - 0.0 - - - - - - -
27/05:30am 14.7 SSW 15 20 1027.9 - 0.0 - - - - - - -
27/05:00am 15.1 SSW 9 11 1028.0 - 0.0 - - - - - - -
27/04:30am 15.1 SSW 12 16 1028.0 - 0.0 - - - - - - -
27/04:00am 15.1 SSW 12 16 1028.0 - 0.0 - - - - - - -
27/03:30am 15.1 SSW 8 9 1028.0 - 0.0 - - - - - - -
27/03:00am 15.1 SSW 13 16 1028.2 - 0.0 - - - - - - -
27/02:30am 14.8 S 14 17 1028.3 - 0.0 - - - - - - -
27/02:00am 15.2 SSW 12 15 1028.4 - 0.0 - - - - - - -
27/01:30am 15.4 S 15 19 1028.4 - 0.0 - - - - - - -
27/01:00am 15.2 SSW 13 17 1028.5 - 0.0 - - - - - - -
27/12:30am 15.3 S 17 21 1028.6 - 0.0 - - - - - - -
27/12:00am 15.4 SSW 14 17 1028.7 - 0.0 - - - - - - -
 
Date/Time
CDT
Temp

°C
Wind Pressure Rain
since 9am
mm
Weather Cloud Vis
km
Sea
Height
m
Swell
Dir
 
Speed
knots
Gust
knots
hPa Trend Height
m
Period
s
Dir
26/11:30pm 15.3 S 16 22 1028.7 - 0.0 - - - - - - -

Other Formats:

Comma delimited format used in spreadsheet applications
http://www.bom.gov.au/fwo/IDS60701/IDS60701.94804.axf

JavaScript Object Notation format (JSON) in row-major order
http://www.bom.gov.au/fwo/IDS60701/IDS60701.94804.json